Logten, Denmark
Current Conditions -  °F | °C
As of 1:50 PM on Monday 20 Oct 2014 (Local Time) from EKAH Reporting Station
Broken Clouds Broken Clouds  
Wind Chill: 55°   Ceiling: 2400
Heat Index: 55°   Visibility: 6mi
Dew Point: 46°   Wind: 20mph
Humidity: 72%   Direction: 280°W
Pressure: 29.68"   Gusts: NA
Location:  56.27°N, 10.31°E
Report Text: EKAH 201150Z AUTO 28017KT 9999NDV BKN024/// 13/08 Q1005
Loading
Personal Weather Stations






























Interactive Weather Map
Tropical Storm Tracking
New forecast layout! Learn more

10-Day Weather Forecast

Advertisements
Track Severe Weather on mobile